Time;durP1;ratioP1;P1;durP2;ratioP2;P2;SDS_P1;SDS_P2;PMS_P1;PMS_P2;Temp;Humidity;BMP_temperature;BMP_pressure;BME280_temperature;BME280_humidity;BME280_pressure;Samples;Min_cycle;Max_cycle;Signal;HPM_P1;HPM_P2
2021/08/15 00:00:36;;;;;;;5.60;2.38;;;;;;;-142.75;63.98;76690.38;4991234;28;19935;-77
2021/08/15 00:03:01;;;;;;;;;;;;;;;-142.75;64.68;76700.22;4985776;28;20554;-78
2021/08/15 00:05:27;;;;;;;6.05;2.97;;;;;;;-142.75;64.76;76704.16;5003209;28;19913;-77
2021/08/15 00:07:53;;;;;;;;;;;;;;;-142.75;64.88;76719.91;4997314;28;20491;-77
2021/08/15 00:10:19;;;;;;;10.57;2.58;;;;;;;-142.75;65.00;76712.03;4981787;28;19921;-78
2021/08/15 00:12:44;;;;;;;;;;;;;;;-142.75;65.32;76719.91;4975408;28;20026;-78
2021/08/15 00:15:10;;;;;;;8.13;2.92;;;;;;;-142.75;65.60;76706.13;4990982;28;19913;-78
2021/08/15 00:17:36;;;;;;;6.78;3.00;;;;;;;-142.75;65.34;76700.22;5009120;28;20029;-78
2021/08/15 00:20:03;;;;;;;;;;;;;;;-142.75;65.21;76700.22;4991365;28;20038;-77
2021/08/15 00:22:28;;;;;;;10.05;2.53;;;;;;;-142.75;64.92;76708.09;5008872;28;19913;-79
2021/08/15 00:24:54;;;;;;;;;;;;;;;-142.75;64.55;76696.28;5009365;28;20031;-78
2021/08/15 00:27:19;;;;;;;6.60;3.00;;;;;;;-142.75;64.89;76706.13;4991315;28;19913;-78
2021/08/15 00:29:44;;;;;;;;;;;;;;;-142.75;65.31;76708.09;4991471;28;20063;-78
2021/08/15 00:32:10;;;;;;;10.40;3.42;;;;;;;-142.75;65.92;76714.00;4990736;28;19961;-78
2021/08/15 00:34:36;;;;;;;7.90;3.13;;;;;;;-142.75;66.16;76723.84;5008919;28;20026;-78
2021/08/15 00:37:01;;;;;;;;;;;;;;;-142.75;66.53;76721.88;5009322;28;20032;-78
2021/08/15 00:39:26;;;;;;;10.48;3.00;;;;;;;-142.75;66.65;76715.97;5002723;28;20410;-77
2021/08/15 00:41:51;;;;;;;9.65;3.33;;;;;;;-142.75;66.85;76719.91;4989185;28;20124;-78
2021/08/15 00:44:17;;;;;;;;;;;;;;;-142.75;66.98;76710.06;5005279;28;20049;-78
2021/08/15 00:46:43;;;;;;;7.97;3.47;;;;;;;-142.75;66.90;76708.09;5000598;28;20295;-79
2021/08/15 00:49:08;;;;;;;;;;;;;;;-142.75;67.01;76696.28;5009724;28;20029;-79
2021/08/15 00:51:33;;;;;;;8.43;3.00;;;;;;;-142.75;66.88;76700.22;4991284;28;20554;-79
2021/08/15 00:53:59;;;;;;;;;;;;;;;-142.75;66.88;76702.19;4991962;28;20380;-79
2021/08/15 00:56:25;;;;;;;8.15;3.22;;;;;;;-142.75;66.82;76702.19;5009764;28;19917;-78
2021/08/15 00:58:50;;;;;;;7.88;3.33;;;;;;;-142.75;66.98;76704.16;5008831;28;20018;-77
2021/08/15 01:01:18;;;;;;;;;;;;;;;-142.75;67.38;76692.34;5009595;28;20048;-77
2021/08/15 01:03:44;;;;;;;12.20;3.85;;;;;;;-142.75;67.44;76698.25;5008880;28;19920;-78
2021/08/15 01:06:09;;;;;;;;;;;;;;;-142.75;67.49;76696.28;4991778;28;20025;-78
2021/08/15 01:08:39;;;;;;;4.95;2.97;;;;;;;-142.75;67.47;76710.06;5008759;28;20012;-78
2021/08/15 01:11:07;;;;;;;9.73;3.10;;;;;;;-142.75;67.76;76710.06;4990401;28;20030;-78
2021/08/15 01:13:33;;;;;;;6.75;3.28;;;;;;;-142.75;67.37;76698.25;5008232;28;20026;-78
2021/08/15 01:16:03;;;;;;;7.72;2.83;;;;;;;-142.75;67.18;76708.09;4990217;28;20479;-77
2021/08/15 01:18:32;;;;;;;11.50;3.17;;;;;;;-142.75;67.55;76712.03;5008254;28;20125;-78
2021/08/15 01:20:59;;;;;;;12.32;2.80;;;;;;;-142.75;67.61;76712.03;4990246;28;20033;-78
2021/08/15 01:23:27;;;;;;;13.00;3.10;;;;;;;-142.75;67.59;76702.19;5008389;28;20138;-78
2021/08/15 01:25:52;;;;;;;8.07;3.22;;;;;;;-142.75;67.36;76690.38;5008470;28;20022;-78
2021/08/15 01:28:18;;;;;;;;;;;;;;;-142.75;67.51;76694.31;4991131;28;20022;-78
2021/08/15 01:30:43;;;;;;;6.40;3.00;;;;;;;-142.75;67.81;76704.16;5008191;28;19929;-78
2021/08/15 01:33:10;;;;;;;;;;;;;;;-142.75;67.92;76706.13;5008643;28;20029;-77
2021/08/15 01:35:35;;;;;;;6.20;3.17;;;;;;;-142.75;68.00;76704.16;4990501;28;19914;-78
2021/08/15 01:38:00;;;;;;;;;;;;;;;-142.75;67.90;76696.28;4990863;28;20030;-78
2021/08/15 01:40:26;;;;;;;9.63;3.20;;;;;;;-142.75;67.75;76698.25;4999687;28;20387;-77
2021/08/15 01:42:51;;;;;;;;;;;;;;;-142.75;67.93;76696.28;5002993;28;20049;-78
2021/08/15 01:45:16;;;;;;;8.32;3.25;;;;;;;-142.75;67.99;76712.03;4990202;28;20371;-79
2021/08/15 01:47:41;;;;;;;;;;;;;;;-142.75;68.27;76719.91;4978448;28;20029;-78
2021/08/15 01:50:07;;;;;;;4.85;2.90;;;;;;;-142.75;68.39;76731.72;4993207;28;20013;-79
2021/08/15 01:52:33;;;;;;;;;;;;;;;-142.75;68.36;76731.72;4975855;28;20121;-78
2021/08/15 01:54:58;;;;;;;7.60;3.10;;;;;;;-142.75;68.43;76725.81;4990695;28;19992;-77
2021/08/15 01:57:23;;;;;;;;;;;;;;;-142.75;68.25;76710.06;5011927;28;20468;-77
2021/08/15 01:59:48;;;;;;;7.50;2.70;;;;;;;-142.75;68.01;76715.97;4992195;28;20341;-78
2021/08/15 02:02:13;;;;;;;;;;;;;;;-142.75;68.08;76714.00;4993819;28;20054;-77
2021/08/15 02:04:39;;;;;;;6.95;3.10;;;;;;;-142.75;68.03;76696.28;4976440;28;20371;-77
2021/08/15 02:07:05;;;;;;;;;;;;;;;-142.75;67.84;76694.31;4995731;28;20041;-79
2021/08/15 02:09:30;;;;;;;9.18;3.25;;;;;;;-142.75;68.03;76715.97;4996248;28;20004;-79
2021/08/15 02:11:55;;;;;;;;;;;;;;;-142.75;68.78;76735.66;5007259;28;20026;-78
2021/08/15 02:14:21;;;;;;;6.10;2.47;;;;;;;-142.75;68.96;76737.63;4977905;28;19946;-79
2021/08/15 02:16:46;;;;;;;;;;;;;;;-142.75;69.13;76745.50;4994293;28;20109;-78
2021/08/15 02:19:11;;;;;;;7.13;2.95;;;;;;;-142.75;69.35;76739.59;4993930;28;19913;-78
2021/08/15 02:21:36;;;;;;;;;;;;;;;-142.75;69.60;76743.53;4993430;28;20071;-77
2021/08/15 02:24:02;;;;;;;8.38;2.80;;;;;;;-142.75;69.87;76712.03;5003722;28;20375;-79
2021/08/15 02:26:27;;;;;;;;;;;;;;;-142.75;69.46;76702.19;5004266;28;20038;-78
2021/08/15 02:28:52;;;;;;;8.38;3.35;;;;;;;-142.75;69.54;76706.13;5005833;28;19925;-79
2021/08/15 02:31:17;;;;;;;;;;;;;;;-142.75;69.56;76696.28;4980790;28;20387;-77
2021/08/15 02:33:42;;;;;;;12.05;3.72;;;;;;;-142.75;69.49;76690.38;4998406;28;19913;-78
2021/08/15 02:36:08;;;;;;;;;;;;;;;-142.75;69.50;76692.34;5001795;28;20479;-79
2021/08/15 02:38:33;;;;;;;7.97;3.40;;;;;;;-142.75;69.45;76688.41;5002492;28;19918;-79
2021/08/15 02:40:58;;;;;;;;;;;;;;;-142.75;69.68;76670.69;4979972;28;20491;-79
2021/08/15 02:43:24;;;;;;;11.48;3.67;;;;;;;-142.75;69.32;76654.94;4996797;28;19945;-79
2021/08/15 02:45:49;;;;;;;;;;;;;;;-142.75;68.86;76637.22;5001127;28;20080;-79
2021/08/15 02:48:14;;;;;;;9.35;3.25;;;;;;;-142.75;68.89;76629.34;4993440;28;19955;-78
2021/08/15 02:50:40;;;;;;;;;;;;;;;-142.75;69.63;76625.41;4993175;28;20041;-78
2021/08/15 02:53:05;;;;;;;10.45;3.33;;;;;;;-142.75;69.97;76637.22;4984727;28;19913;-78
2021/08/15 02:55:30;;;;;;;;;;;;;;;-142.75;70.12;76633.28;4993824;28;20431;-77
2021/08/15 02:57:55;;;;;;;6.75;3.92;;;;;;;-142.75;70.55;76654.94;5003517;28;19920;-78
2021/08/15 03:00:20;;;;;;;;;;;;;;;-142.75;70.67;76666.75;4992672;28;20026;-77
2021/08/15 03:02:46;;;;;;;8.35;3.75;;;;;;;-142.75;70.55;76652.97;5010452;28;19913;-78
2021/08/15 03:05:11;;;;;;;;;;;;;;;-142.75;70.75;76674.63;4999949;28;20436;-77
2021/08/15 03:07:36;;;;;;;11.30;3.30;;;;;;;-142.75;70.28;76666.75;4996289;28;19921;-77
2021/08/15 03:10:02;;;;;;;;;;;;;;;-142.75;70.15;76672.66;4987257;28;20037;-79
2021/08/15 03:12:28;;;;;;;10.70;3.72;;;;;;;-142.75;70.21;76682.50;4992261;28;19921;-78
2021/08/15 03:14:53;;;;;;;;;;;;;;;-142.75;70.21;76684.47;4992869;28;20423;-78
2021/08/15 03:17:18;;;;;;;10.30;3.47;;;;;;;-142.75;70.16;76674.63;5009905;28;19920;-78
2021/08/15 03:19:43;;;;;;;;;;;;;;;-142.75;70.09;76678.56;4992876;28;20048;-78
2021/08/15 03:22:09;;;;;;;8.57;3.55;;;;;;;-142.75;70.21;76672.66;5008291;28;20027;-77
2021/08/15 03:24:34;;;;;;;;;;;;;;;-142.75;69.93;76660.84;4993138;28;20122;-78
2021/08/15 03:27:00;;;;;;;12.82;4.82;;;;;;;-142.75;69.63;76668.72;5009835;28;19914;-79
2021/08/15 03:29:25;;;;;;;;;;;;;;;-142.75;69.80;76662.81;5010206;28;20537;-77
2021/08/15 03:31:51;;;;;;;8.02;3.38;;;;;;;-142.75;69.69;76680.53;5009820;28;19935;-79
2021/08/15 03:34:19;;;;;;;;;;;;;;;-142.75;69.81;76674.63;5009984;28;20083;-78
2021/08/15 03:36:46;;;;;;;10.48;3.85;;;;;;;-142.75;70.01;76678.56;5004807;28;20431;-78
2021/08/15 03:39:12;;;;;;;10.13;3.92;;;;;;;-142.75;70.20;76672.66;4992707;28;20029;-78
2021/08/15 03:41:37;;;;;;;;;;;;;;;-142.75;70.15;76660.84;4992502;28;20036;-78
2021/08/15 03:44:03;;;;;;;9.63;4.35;;;;;;;-142.75;69.94;76652.97;4992871;28;20016;-79
2021/08/15 03:46:28;;;;;;;;;;;;;;;-142.75;69.67;76651.00;5010411;28;20090;-78
2021/08/15 03:48:53;;;;;;;10.63;3.95;;;;;;;-142.75;69.66;76641.16;5009545;28;19988;-79
2021/08/15 03:51:19;;;;;;;;;;;;;;;-142.75;69.81;76637.22;5010130;28;20601;-78
2021/08/15 03:53:44;;;;;;;12.93;4.53;;;;;;;-142.75;69.84;76643.13;4993241;28;19914;-77
2021/08/15 03:56:09;;;;;;;;;;;;;;;-142.75;69.87;76639.19;5010205;28;20032;-78
2021/08/15 03:58:35;;;;;;;9.90;4.30;;;;;;;-142.75;69.70;76635.25;4992207;28;19921;-77
2021/08/15 04:01:00;;;;;;;;;;;;;;;-142.75;69.69;76641.16;4992791;28;20083;-79
2021/08/15 04:03:25;;;;;;;13.25;3.75;;;;;;;-142.75;69.67;76639.19;5009761;28;20231;-79
2021/08/15 04:05:55;;;;;;;;;;;;;;;-142.75;69.54;76623.44;5007704;28;20029;-78
2021/08/15 04:08:20;;;;;;;10.48;3.75;;;;;;;-142.75;69.60;76607.69;4989729;28;19998;-78
2021/08/15 04:10:45;;;;;;;;;;;;;;;-142.75;69.29;76605.72;5000828;28;20037;-78
2021/08/15 04:13:10;;;;;;;7.65;4.15;;;;;;;-142.75;69.80;76611.63;4992245;28;19967;-78
2021/08/15 04:15:35;;;;;;;;;;;;;;;-142.75;69.91;76633.28;4992683;28;20048;-77
2021/08/15 04:18:01;;;;;;;9.18;4.43;;;;;;;-142.75;70.10;76631.31;4991395;28;19918;-78
2021/08/15 04:20:26;;;;;;;;;;;;;;;-142.75;70.09;76621.47;5009682;28;20034;-78
2021/08/15 04:22:52;;;;;;;9.68;4.47;;;;;;;-142.75;70.30;76617.53;4991855;28;20268;-78
2021/08/15 04:25:17;;;;;;;9.40;4.40;;;;;;;-142.75;70.30;76617.53;4992483;28;20065;-80
2021/08/15 04:27:43;;;;;;;;;;;;;;;-142.75;70.33;76607.69;4992859;28;20046;-78
2021/08/15 04:30:09;;;;;;;9.52;4.55;;;;;;;-142.75;70.40;76607.69;4991312;28;20416;-77
2021/08/15 04:32:35;;;;;;;10.30;4.00;;;;;;;-142.75;70.38;76609.66;4991477;28;20026;-77
2021/08/15 04:35:00;;;;;;;;;;;;;;;-142.75;70.43;76613.59;4992472;28;20032;-78
2021/08/15 04:37:26;;;;;;;13.45;4.53;;;;;;;-142.75;70.55;76617.53;5004010;28;19979;-78
2021/08/15 04:39:52;;;;;;;;;;;;;;;-142.75;70.42;76591.94;5001404;28;20025;-78
2021/08/15 04:42:18;;;;;;;10.25;4.72;;;;;;;-142.75;70.49;76593.91;5009320;28;19913;-78
2021/08/15 04:44:43;;;;;;;;;;;;;;;-142.75;70.63;76580.13;5009350;28;20128;-78
2021/08/15 04:47:08;;;;;;;11.70;5.03;;;;;;;-142.75;70.67;76603.75;5008778;28;19920;-78
2021/08/15 04:49:33;;;;;;;;;;;;;;;-142.75;71.04;76609.66;4982584;28;20027;-78
2021/08/15 04:51:59;;;;;;;11.05;4.93;;;;;;;-142.75;71.41;76599.81;5008543;28;19918;-79
2021/08/15 04:54:27;;;;;;;;;;;;;;;-142.75;71.37;76593.91;5009254;28;20029;-79
2021/08/15 04:56:53;;;;;;;13.65;4.97;;;;;;;-142.75;71.41;76593.91;5008710;28;19935;-78
2021/08/15 04:59:18;;;;;;;15.90;5.53;;;;;;;-142.75;71.41;76586.03;4991619;28;20041;-79
2021/08/15 05:01:43;;;;;;;;;;;;;;;-142.75;71.30;76586.03;5009759;28;20030;-77
2021/08/15 05:04:09;;;;;;;14.32;6.25;;;;;;;-142.75;71.34;76586.03;4981811;28;19921;-78
2021/08/15 05:06:34;;;;;;;;;;;;;;;-142.75;71.39;76584.06;4981936;28;20033;-78
2021/08/15 05:08:59;;;;;;;12.55;4.80;;;;;;;-142.75;71.38;76595.88;5000143;28;19963;-78
2021/08/15 05:11:24;;;;;;;;;;;;;;;-142.75;71.44;76582.09;4975486;28;20406;-78
2021/08/15 05:13:50;;;;;;;11.70;5.32;;;;;;;-142.75;71.17;76570.28;5008587;28;19914;-78
2021/08/15 05:16:15;;;;;;;;;;;;;;;-142.75;71.23;76574.22;5009391;28;20018;-79
2021/08/15 05:18:40;;;;;;;14.77;5.47;;;;;;;-142.75;71.25;76568.31;4998871;28;19921;-77
2021/08/15 05:21:06;;;;;;;;;;;;;;;-142.75;71.30;76568.31;4980020;28;20042;-78
2021/08/15 05:23:31;;;;;;;13.93;5.82;;;;;;;-142.75;71.28;76584.06;5000636;28;19922;-78
2021/08/15 05:25:56;;;;;;;;;;;;;;;-142.75;71.31;76572.25;4983573;28;20037;-78
2021/08/15 05:28:22;;;;;;;14.00;5.75;;;;;;;-142.75;71.22;76568.31;4991415;28;19963;-78
2021/08/15 05:30:47;;;;;;;;;;;;;;;-142.75;71.00;76564.38;5010628;28;20059;-79
2021/08/15 05:33:12;;;;;;;10.85;5.57;;;;;;;-142.75;70.84;76546.66;4995135;28;19913;-79
2021/08/15 05:35:37;;;;;;;;;;;;;;;-142.75;70.43;76527.00;4990727;28;20054;-79
2021/08/15 05:38:02;;;;;;;16.60;6.93;;;;;;;-142.75;70.24;76527.00;4998515;28;20329;-79
2021/08/15 05:40:28;;;;;;;;;;;;;;;-142.75;69.81;76505.34;4984872;28;20111;-79
2021/08/15 05:42:53;;;;;;;13.02;5.45;;;;;;;-142.75;69.63;76515.19;4994769;28;19917;-78
2021/08/15 05:45:18;;;;;;;;;;;;;;;-142.75;69.94;76515.19;5005313;22;20095;-77
2021/08/15 05:47:43;;;;;;;20.17;6.43;;;;;;;-142.75;69.84;76501.41;5010303;28;19917;-77
2021/08/15 05:50:12;;;;;;;;;;;;;;;-142.75;69.53;76487.63;5011832;28;20631;-76
2021/08/15 05:52:37;;;;;;;14.85;6.15;;;;;;;-142.75;69.00;76479.75;5011461;28;19920;-78
2021/08/15 05:55:03;;;;;;;;;;;;;;;-142.75;68.54;76473.84;5025974;28;20491;-76
2021/08/15 05:57:28;;;;;;;15.38;5.65;;;;;;;-142.75;68.48;76460.06;5016472;28;19914;-76
2021/08/15 05:59:53;;;;;;;;;;;;;;;-142.75;67.93;76460.06;5011359;28;20018;-76
2021/08/15 06:02:19;;;;;;;17.30;6.30;;;;;;;-142.75;67.92;76444.31;5027603;28;19921;-75
2021/08/15 06:04:44;;;;;;;;;;;;;;;-142.75;67.84;76438.41;5031031;28;20482;-75
2021/08/15 06:07:11;;;;;;;17.77;6.13;;;;;;;-142.75;67.63;76442.34;5014615;28;19913;-75
2021/08/15 06:09:36;;;;;;;14.60;6.15;;;;;;;-142.75;67.32;76424.63;5027312;28;20018;-74
2021/08/15 06:12:05;;;;;;;;;;;;;;;-142.75;66.72;76401.00;5013029;28;20044;-75
2021/08/15 06:14:30;;;;;;;14.63;5.43;;;;;;;-142.75;65.87;76389.19;5013354;28;19913;-74
2021/08/15 06:16:55;;;;;;;;;;;;;;;-142.75;65.63;76381.31;5011109;28;20034;-75
2021/08/15 06:19:21;;;;;;;14.43;5.57;;;;;;;-142.75;65.86;76365.56;5003399;28;19917;-74
2021/08/15 06:21:46;;;;;;;;;;;;;;;-142.75;65.88;76322.28;5006421;28;20494;-76
2021/08/15 06:24:11;;;;;;;17.63;5.75;;;;;;;-142.75;64.85;76302.59;5026468;28;19924;-76
2021/08/15 06:26:36;;;;;;;18.70;6.40;;;;;;;-142.75;63.80;76298.66;5029831;28;20022;-77
2021/08/15 06:29:01;;;;;;;;;;;;;;;-142.75;63.48;76275.03;5011259;28;20074;-76
2021/08/15 06:31:27;;;;;;;13.30;5.68;;;;;;;-142.75;64.12;76280.94;4992803;28;20367;-77
2021/08/15 06:33:53;;;;;;;13.35;5.70;;;;;;;-142.75;63.88;76267.16;4993233;28;20034;-76
2021/08/15 06:36:18;;;;;;;;;;;;;;;-142.75;63.58;76282.91;4993947;28;20033;-76
2021/08/15 06:38:43;;;;;;;21.55;6.82;;;;;;;-142.75;63.88;76269.13;5011154;28;20432;-77
2021/08/15 06:41:09;;;;;;;16.60;6.10;;;;;;;-142.75;63.70;76253.38;5011646;28;20180;-75
2021/08/15 06:43:34;;;;;;;;;;;;;;;-142.75;62.51;76259.28;4993391;28;20544;-75
2021/08/15 06:45:59;;;;;;;14.40;6.25;;;;;;;-142.75;63.13;76251.41;5024650;28;20011;-76
2021/08/15 06:48:24;;;;;;;17.35;6.35;;;;;;;-142.75;63.48;76247.47;5018389;28;20097;-76
2021/08/15 06:50:54;;;;;;;;;;;;;;;-142.75;63.11;76229.75;5011857;28;20491;-76
2021/08/15 06:53:21;;;;;;;15.48;5.43;;;;;;;-142.75;62.46;76204.16;5030131;28;19913;-75
2021/08/15 06:55:46;;;;;;;16.67;6.07;;;;;;;-142.75;61.82;76196.31;5026045;28;20034;-77
2021/08/15 06:58:12;;;;;;;17.52;6.07;;;;;;;-142.75;61.16;76127.41;5012726;28;20026;-77
2021/08/15 07:00:37;;;;;;;20.27;6.35;;;;;;;-142.75;59.83;76066.41;5007374;28;20021;-75
2021/08/15 07:03:02;;;;;;;16.33;5.90;;;;;;;-142.75;58.89;75975.84;5016744;28;20034;-74
2021/08/15 07:05:28;;;;;;;18.52;5.63;;;;;;;-142.75;56.73;75889.25;5008043;28;20113;-75
2021/08/15 07:07:53;;;;;;;17.40;5.50;;;;;;;-142.75;54.10;75857.78;5010393;28;20395;-74
2021/08/15 07:10:18;;;;;;;14.60;5.63;;;;;;;-142.75;53.53;75769.19;4995529;28;20033;-75
2021/08/15 07:12:43;;;;;;;21.75;6.10;;;;;;;-142.75;51.70;75672.78;4991264;28;20033;-75
2021/08/15 07:15:09;;;;;;;16.42;5.88;;;;;;;-142.75;50.24;75570.44;4991006;28;20018;-75
2021/08/15 07:17:37;;;;;;;15.93;5.68;;;;;;;-142.75;48.16;75468.09;4995233;28;20033;-75
2021/08/15 07:20:05;;;;;;;14.55;5.00;;;;;;;-142.75;45.81;75359.88;4992436;28;20056;-75
2021/08/15 07:22:30;;;;;;;10.75;4.70;;;;;;;-142.75;44.56;75279.19;5016612;28;20032;-75
2021/08/15 07:24:55;;;;;;;18.20;5.45;;;;;;;-142.75;44.04;75253.59;5009736;28;20030;-75
2021/08/15 07:27:21;;;;;;;12.60;4.90;;;;;;;-142.75;42.54;75155.22;5010497;28;20052;-76
2021/08/15 07:29:46;;;;;;;12.02;5.40;;;;;;;-142.75;41.34;75113.88;5010179;28;20411;-75
2021/08/15 07:32:11;;;;;;;13.20;5.43;;;;;;;-142.75;40.47;75046.97;5010361;28;20029;-75
2021/08/15 07:34:37;;;;;;;12.32;4.75;;;;;;;-142.75;39.69;75001.72;4992535;28;20112;-75
2021/08/15 07:37:03;;;;;;;12.02;5.15;;;;;;;-142.75;38.80;74921.06;5014581;28;20097;-76
2021/08/15 07:39:28;;;;;;;13.70;5.20;;;;;;;-142.75;38.42;74860.06;5011742;28;20032;-76
2021/08/15 07:41:53;;;;;;;13.40;4.50;;;;;;;-142.75;37.34;74797.09;5025051;28;20097;-75
2021/08/15 07:44:18;;;;;;;13.77;4.85;;;;;;;-142.75;35.74;74779.38;5000379;28;20025;-75
2021/08/15 07:46:44;;;;;;;10.60;4.80;;;;;;;-142.75;35.77;74767.56;5016921;28;20486;-76
2021/08/15 07:49:09;;;;;;;10.15;5.18;;;;;;;-142.75;35.38;74718.38;5005337;28;20029;-75
2021/08/15 07:51:34;;;;;;;13.00;5.00;;;;;;;-142.75;34.76;74732.16;5025925;28;20026;-77
2021/08/15 07:53:59;;;;;;;9.45;4.15;;;;;;;-142.75;35.11;74696.75;5004704;28;20040;-76
2021/08/15 07:56:25;;;;;;;13.40;4.72;;;;;;;-142.75;34.67;74649.53;5016979;28;20030;-76
2021/08/15 07:58:51;;;;;;;10.38;4.18;;;;;;;-142.75;34.52;74629.84;5014469;28;20109;-76
2021/08/15 08:01:17;;;;;;;10.93;4.55;;;;;;;-142.75;32.92;74545.25;4995197;28;20034;-76
2021/08/15 08:03:43;;;;;;;12.13;4.50;;;;;;;-142.75;33.45;74523.59;5028058;28;20086;-76
2021/08/15 08:06:08;;;;;;;12.52;4.53;;;;;;;-142.75;32.67;74474.41;5029921;28;20056;-76
2021/08/15 08:08:33;;;;;;;12.73;4.60;;;;;;;-142.75;32.82;74476.38;5004123;28;20045;-75
2021/08/15 08:10:59;;;;;;;9.82;3.78;;;;;;;-142.75;32.37;74444.91;5017837;28;20489;-76
2021/08/15 08:13:24;;;;;;;9.23;4.30;;;;;;;-142.75;32.10;74442.94;4996346;28;20018;-76
2021/08/15 08:15:50;;;;;;;9.32;3.85;;;;;;;-142.75;31.85;74425.22;5009013;28;20038;-75
2021/08/15 08:18:16;;;;;;;10.57;4.10;;;;;;;-142.75;31.75;74435.06;5011053;28;20078;-74
2021/08/15 08:20:41;;;;;;;12.63;4.18;;;;;;;-142.75;31.85;74500.00;5011484;28;20033;-76
2021/08/15 08:23:10;;;;;;;10.48;4.45;;;;;;;-142.75;31.89;74458.69;5025826;28;20030;-76
2021/08/15 08:25:36;;;;;;;10.27;4.35;;;;;;;-142.75;31.68;74509.81;5011815;28;20565;-76
2021/08/15 08:28:02;;;;;;;14.20;4.72;;;;;;;-142.75;32.99;74584.59;5028396;28;20072;-75
2021/08/15 08:30:27;;;;;;;9.25;3.88;;;;;;;-142.75;33.33;74505.91;5027164;28;20436;-74
2021/08/15 08:32:52;;;;;;;11.18;4.40;;;;;;;-142.75;32.01;74437.03;5013045;28;20051;-76
2021/08/15 08:35:18;;;;;;;12.25;4.45;;;;;;;-142.75;31.18;74403.59;4994840;28;20044;-75
2021/08/15 08:37:44;;;;;;;10.75;4.30;;;;;;;-142.75;30.95;74344.56;4995597;28;20108;-75
2021/08/15 08:40:12;;;;;;;13.85;4.10;;;;;;;-142.75;30.46;74307.19;5019426;28;20383;-75
2021/08/15 08:42:37;;;;;;;11.32;4.57;;;;;;;-142.75;30.78;74336.69;5008533;28;20034;-76
2021/08/15 08:45:03;;;;;;;9.13;4.35;;;;;;;-142.75;30.11;74293.41;5027677;28;20025;-76
2021/08/15 08:47:30;;;;;;;7.97;4.03;;;;;;;-142.75;29.54;74281.59;5025280;28;20064;-76
2021/08/15 08:49:56;;;;;;;10.43;4.43;;;;;;;-142.75;30.50;74254.06;5027422;28;20022;-75
2021/08/15 08:52:26;;;;;;;10.63;4.40;;;;;;;-142.75;30.55;74281.59;5027845;28;20033;-73
2021/08/15 08:54:53;;;;;;;9.30;4.25;;;;;;;-142.75;29.57;74238.31;5026417;28;20033;-75
2021/08/15 08:57:18;;;;;;;10.27;4.13;;;;;;;-142.75;29.77;74263.91;5016470;28;20028;-75
2021/08/15 08:59:43;;;;;;;8.50;3.75;;;;;;;-142.75;29.04;74244.22;5021048;28;20022;-75
2021/08/15 09:02:09;;;;;;;9.02;3.97;;;;;;;-142.75;29.16;74214.72;5007655;28;20458;-76
2021/08/15 09:04:34;;;;;;;8.60;4.00;;;;;;;-142.75;28.63;74163.56;5024455;28;20021;-77
2021/08/15 09:07:20;;;;;;;10.55;4.00;;;;;;;-142.75;28.08;74086.84;5026682;28;20018;-76
2021/08/15 09:09:59;;;;;;;12.02;4.05;;;;;;;-142.75;29.28;74167.50;5008845;28;20021;-75
2021/08/15 09:12:34;;;;;;;8.80;3.78;;;;;;;-142.75;28.76;74118.31;5008639;28;20033;-75
2021/08/15 09:15:26;;;;;;;;;;;;;;;-142.75;29.04;74132.09;5019726;28;20029;-77
2021/08/15 09:17:52;;;;;;;9.95;4.53;;;;;;;-142.75;29.48;74167.50;5019690;28;19949;-76
2021/08/15 09:20:39;;;;;;;13.43;4.10;;;;;;;-142.75;28.78;74106.53;5010949;28;20068;-76
2021/08/15 09:23:28;;;;;;;12.88;4.55;;;;;;;-142.75;28.66;74055.38;5015440;28;20125;-75
2021/08/15 09:26:19;;;;;;;14.73;4.18;;;;;;;-142.75;28.66;74071.09;5008990;28;20018;-75
2021/08/15 09:28:47;;;;;;;10.50;4.20;;;;;;;-142.75;28.20;74057.34;5020626;28;20110;-76
2021/08/15 09:31:28;;;;;;;7.97;3.47;;;;;;;-142.75;28.40;74071.09;5018663;28;20026;-75
2021/08/15 09:33:56;;;;;;;7.65;3.90;;;;;;;-142.75;27.80;74008.16;5008481;28;20373;-75
2021/08/15 09:36:41;;;;;;;8.55;3.72;;;;;;;-142.75;28.01;74114.38;4990620;28;20041;-76
2021/08/15 09:39:07;;;;;;;11.35;3.80;;;;;;;-142.75;27.89;74035.69;5008187;28;20030;-76
2021/08/15 09:41:38;;;;;;;11.57;3.85;;;;;;;-142.75;28.51;74023.91;5008093;28;20033;-76
2021/08/15 09:44:26;;;;;;;10.15;4.15;;;;;;;-142.75;28.86;74082.91;5013459;28;20033;-76
2021/08/15 09:46:59;;;;;;;8.20;3.22;;;;;;;-142.75;30.78;74350.47;5006190;28;20037;-75
2021/08/15 09:49:31;;;;;;;11.73;3.65;;;;;;;-142.75;30.09;74256.03;5020034;28;20022;-75
2021/08/15 09:51:56;;;;;;;9.75;3.60;;;;;;;-142.75;29.67;74275.72;5007805;28;20022;-76
2021/08/15 09:54:22;;;;;;;6.93;2.55;;;;;;;-142.75;30.63;74342.59;5008194;28;20376;-76
2021/08/15 09:56:48;;;;;;;8.77;3.22;;;;;;;-142.75;30.38;74452.78;5025429;28;20025;-75
2021/08/15 09:59:18;;;;;;;8.70;2.67;;;;;;;-142.75;31.21;74360.31;5017713;28;20025;-75
2021/08/15 10:01:46;;;;;;;4.68;2.25;;;;;;;-142.75;31.50;74271.78;5007754;28;20545;-76
2021/08/15 10:04:13;;;;;;;6.45;2.65;;;;;;;-142.75;30.69;74236.34;5007928;28;20542;-75
2021/08/15 10:06:44;;;;;;;5.72;2.03;;;;;;;-142.75;29.53;74173.41;5012157;28;20034;-76
2021/08/15 10:09:09;;;;;;;7.93;2.50;;;;;;;-142.75;30.09;74214.72;5017454;28;20026;-75
2021/08/15 10:11:36;;;;;;;5.20;2.08;;;;;;;-142.75;30.02;74267.84;5001892;28;20478;-76
2021/08/15 10:14:06;;;;;;;4.88;2.00;;;;;;;-142.75;31.73;74433.09;5007139;28;20061;-76
2021/08/15 10:16:59;;;;;;;6.97;2.30;;;;;;;-142.75;32.92;74562.94;5020578;28;20575;-76
2021/08/15 10:19:39;;;;;;;7.53;2.28;;;;;;;-142.75;33.68;74614.09;5013567;28;20038;-76
2021/08/15 10:22:06;;;;;;;4.95;2.25;;;;;;;-142.75;34.27;74639.69;5011391;28;20118;-75
2021/08/15 10:24:50;;;;;;;8.90;2.40;;;;;;;-142.75;34.71;74694.78;4993932;28;20036;-75
2021/08/15 10:27:55;;;;;;;3.38;1.88;;;;;;;-142.75;35.73;74736.09;5011242;28;20030;-75
2021/08/15 10:30:20;;;;;;;5.57;2.40;;;;;;;-142.75;35.27;74779.38;5025663;28;20093;-75
2021/08/15 10:32:54;;;;;;;7.27;2.10;;;;;;;-142.75;36.13;74824.63;5027895;28;20049;-75
2021/08/15 10:35:21;;;;;;;5.15;1.92;;;;;;;-142.75;36.65;74836.44;5020216;28;20280;-76
2021/08/15 10:37:49;;;;;;;5.22;2.00;;;;;;;-142.75;36.81;74834.47;5013108;28;20105;-76
2021/08/15 10:40:42;;;;;;;5.25;1.80;;;;;;;-142.75;37.44;74899.41;5030366;28;20026;-75
2021/08/15 10:43:09;;;;;;;4.85;2.28;;;;;;;-142.75;37.15;74850.22;5028390;28;20026;-75
2021/08/15 10:45:35;;;;;;;7.57;2.47;;;;;;;-142.75;36.48;74799.06;5024985;28;20029;-76
2021/08/15 10:48:10;;;;;;;6.22;2.10;;;;;;;-142.75;36.48;74795.13;5024211;28;20030;-76
2021/08/15 10:50:46;;;;;;;5.15;2.22;;;;;;;-142.75;36.80;74781.34;5010636;28;20026;-76
2021/08/15 10:53:30;;;;;;;6.10;2.30;;;;;;;-142.75;37.32;74820.69;5025328;28;20078;-76
2021/08/15 10:56:09;;;;;;;6.00;2.45;;;;;;;-142.75;37.25;74848.25;5020730;28;20033;-74
2021/08/15 10:58:42;;;;;;;5.30;2.20;;;;;;;-142.75;37.75;74830.53;5030271;28;20041;-76
2021/08/15 11:01:13;;;;;;;6.97;2.35;;;;;;;-142.75;37.20;74814.78;5012640;28;20033;-75
2021/08/15 11:03:47;;;;;;;7.07;2.22;;;;;;;-142.75;37.67;74818.72;5030024;28;20521;-75
2021/08/15 11:06:31;;;;;;;5.25;2.53;;;;;;;-142.75;37.14;74795.13;5015067;28;20498;-76
2021/08/15 11:09:07;;;;;;;5.03;1.60;;;;;;;-142.75;36.52;74771.50;5025935;28;20108;-76
2021/08/15 11:11:35;;;;;;;5.53;1.88;;;;;;;-142.75;36.66;74781.34;5002518;28;20040;-77
2021/08/15 11:14:21;;;;;;;3.28;1.30;;;;;;;-142.75;36.34;74846.28;5026314;28;20078;-76
2021/08/15 11:16:57;;;;;;;6.32;1.73;;;;;;;-142.75;37.37;74917.13;5002834;28;20388;-75
2021/08/15 11:19:22;;;;;;;;;;;;;;;-142.75;37.59;74950.56;5012883;28;20493;-76
2021/08/15 11:22:24;;;;;;;5.20;1.83;;;;;;;-142.75;37.82;74974.19;5024001;28;20005;-75
2021/08/15 11:24:58;;;;;;;5.32;1.88;;;;;;;-142.75;38.85;74993.84;5029819;28;20033;-75
2021/08/15 11:27:30;;;;;;;4.50;1.83;;;;;;;-142.75;38.24;74999.75;5029975;28;20029;-75
2021/08/15 11:29:58;;;;;;;4.97;2.05;;;;;;;-142.75;39.52;75023.38;5029691;28;20048;-76
2021/08/15 11:32:30;;;;;;;4.38;2.30;;;;;;;-142.75;39.34;75005.66;5029692;28;20025;-75